createdAt,value
2018-08-10T00:00:19.305Z,11.20
2018-08-10T00:01:19.260Z,10.10
2018-08-10T00:02:19.295Z,9.10
2018-08-10T00:03:19.289Z,10.10
2018-08-10T00:04:19.292Z,9.40
2018-08-10T00:05:19.380Z,8.80
2018-08-10T00:06:19.321Z,8.30
2018-08-10T00:07:19.383Z,9.10
2018-08-10T00:08:19.379Z,8.10
2018-08-10T00:09:19.374Z,8.50
2018-08-10T00:10:19.480Z,8.00
2018-08-10T00:11:19.422Z,8.60
2018-08-10T00:12:19.438Z,8.10
2018-08-10T00:13:19.448Z,8.50
2018-08-10T00:14:19.446Z,8.10
2018-08-10T00:15:19.488Z,7.80
2018-08-10T00:16:19.511Z,8.00
2018-08-10T00:17:20.423Z,8.20
2018-08-10T00:18:19.525Z,7.60
2018-08-10T00:19:19.521Z,7.80
2018-08-10T00:20:19.545Z,8.20
2018-08-10T00:21:19.569Z,7.90
2018-08-10T00:22:19.614Z,7.80
2018-08-10T00:23:19.598Z,9.00
2018-08-10T00:24:19.622Z,9.60
2018-08-10T00:25:20.479Z,7.90
2018-08-10T00:26:19.615Z,8.90
2018-08-10T00:27:19.667Z,7.60
2018-08-10T00:28:19.657Z,8.20
2018-08-10T00:29:19.693Z,9.70
2018-08-10T00:30:19.681Z,8.50
2018-08-10T00:31:19.711Z,8.70
2018-08-10T00:32:19.744Z,8.00
2018-08-10T00:33:20.956Z,7.60
2018-08-10T00:34:19.743Z,7.90
2018-08-10T00:35:19.795Z,7.50
2018-08-10T00:36:19.780Z,8.00
2018-08-10T00:37:19.813Z,9.60
2018-08-10T00:38:19.824Z,8.00
2018-08-10T00:39:19.819Z,8.20
2018-08-10T00:40:19.823Z,7.80
2018-08-10T00:41:19.874Z,8.70
2018-08-10T00:42:19.850Z,7.60
2018-08-10T00:43:19.850Z,8.30
2018-08-10T00:44:19.889Z,10.40
2018-08-10T00:45:19.893Z,9.90
2018-08-10T00:46:19.945Z,7.50
2018-08-10T00:47:19.938Z,9.40
2018-08-10T00:48:20.006Z,7.30
2018-08-10T00:49:19.971Z,7.40
2018-08-10T00:50:19.982Z,7.40
2018-08-10T00:51:19.991Z,9.50
2018-08-10T00:52:20.016Z,7.20
2018-08-10T00:53:20.035Z,7.50
2018-08-10T00:54:20.077Z,7.20
2018-08-10T00:55:20.093Z,7.20
2018-08-10T00:56:20.046Z,7.30
2018-08-10T00:57:20.062Z,7.20
2018-08-10T00:58:20.107Z,7.90
2018-08-10T00:59:20.120Z,6.70
2018-08-10T01:00:20.142Z,7.10
2018-08-10T01:01:20.151Z,7.30
2018-08-10T01:02:20.160Z,7.00
2018-08-10T01:03:20.177Z,6.70
2018-08-10T01:04:20.154Z,8.30
2018-08-10T01:05:20.182Z,7.30
2018-08-10T01:06:20.204Z,7.10
2018-08-10T01:07:20.202Z,7.30
2018-08-10T01:08:20.226Z,7.10
2018-08-10T01:09:20.219Z,7.20
2018-08-10T01:10:20.254Z,7.90
2018-08-10T01:11:20.321Z,7.70
2018-08-10T01:12:20.294Z,7.70
2018-08-10T01:13:20.355Z,7.60
2018-08-10T01:14:20.316Z,7.80
2018-08-10T01:15:20.310Z,8.50
2018-08-10T01:16:20.355Z,8.10
2018-08-10T01:17:20.359Z,7.50
2018-08-10T01:18:20.363Z,7.30
2018-08-10T01:19:20.457Z,7.50
2018-08-10T01:20:20.448Z,8.00
2018-08-10T01:21:20.423Z,7.60
2018-08-10T01:22:20.449Z,7.80
2018-08-10T01:23:20.434Z,7.30
2018-08-10T01:24:20.473Z,7.10
2018-08-10T01:25:20.509Z,7.20
2018-08-10T01:26:21.544Z,7.30
2018-08-10T01:27:20.491Z,7.10
2018-08-10T01:28:21.519Z,7.10
2018-08-10T01:29:21.546Z,7.20
2018-08-10T01:30:21.504Z,6.80
2018-08-10T01:31:20.548Z,7.00
2018-08-10T01:32:20.572Z,7.00
2018-08-10T01:33:20.559Z,6.60
2018-08-10T01:34:20.583Z,6.80
2018-08-10T01:35:20.645Z,6.60
2018-08-10T01:36:20.679Z,7.00
2018-08-10T01:37:20.649Z,6.30
2018-08-10T01:38:20.648Z,6.40
2018-08-10T01:39:20.659Z,6.50
2018-08-10T01:40:20.687Z,6.70
2018-08-10T01:41:20.725Z,6.60
2018-08-10T01:42:20.756Z,6.30
2018-08-10T01:43:20.703Z,6.90
2018-08-10T01:44:20.734Z,7.80
2018-08-10T01:45:20.738Z,6.40
2018-08-10T01:46:20.766Z,6.50
2018-08-10T01:47:20.829Z,6.30
2018-08-10T01:48:20.781Z,6.50
2018-08-10T01:49:20.794Z,6.50
2018-08-10T01:50:20.799Z,6.50
2018-08-10T01:51:20.839Z,6.20
2018-08-10T01:52:20.907Z,6.50
2018-08-10T01:53:20.838Z,6.30
2018-08-10T01:54:20.866Z,6.10
2018-08-10T01:55:20.939Z,6.40
2018-08-10T01:56:20.901Z,6.10
2018-08-10T01:57:20.934Z,5.50
2018-08-10T01:58:20.942Z,6.50
2018-08-10T01:59:20.947Z,5.50
2018-08-10T02:00:21.029Z,5.80
2018-08-10T02:01:20.962Z,5.30
2018-08-10T02:02:20.977Z,5.50
2018-08-10T02:03:21.039Z,5.40
2018-08-10T02:04:21.026Z,5.80
2018-08-10T02:05:21.084Z,5.40
2018-08-10T02:06:21.056Z,5.20
2018-08-10T02:07:21.042Z,5.20
2018-08-10T02:08:21.070Z,5.20
2018-08-10T02:09:21.080Z,5.40
2018-08-10T02:10:21.146Z,5.80
2018-08-10T02:11:21.097Z,4.80
2018-08-10T02:12:21.129Z,4.90
2018-08-10T02:13:21.146Z,5.30
2018-08-10T02:14:21.134Z,5.30
2018-08-10T02:15:21.232Z,5.30
2018-08-10T02:16:21.179Z,5.20
2018-08-10T02:17:21.182Z,5.30
2018-08-10T02:18:21.248Z,4.90
2018-08-10T02:19:21.205Z,5.70
2018-08-10T02:20:21.275Z,5.20
2018-08-10T02:21:21.276Z,5.00
2018-08-10T02:22:21.273Z,5.10
2018-08-10T02:23:21.302Z,4.90
2018-08-10T02:24:21.274Z,5.30
2018-08-10T02:25:21.310Z,5.50
2018-08-10T02:26:21.367Z,5.30
2018-08-10T02:27:21.353Z,5.00
2018-08-10T02:28:21.355Z,4.80
2018-08-10T02:29:21.353Z,4.80
2018-08-10T02:30:21.363Z,5.20
2018-08-10T02:31:21.403Z,4.80
2018-08-10T02:32:21.430Z,5.70
2018-08-10T02:33:21.413Z,4.80
2018-08-10T02:34:21.424Z,5.00
2018-08-10T02:35:21.516Z,5.20
2018-08-10T02:36:21.450Z,5.50
2018-08-10T02:37:21.479Z,4.80
2018-08-10T02:38:21.483Z,4.70
2018-08-10T02:39:21.491Z,4.60
2018-08-10T02:40:21.546Z,5.00
2018-08-10T02:41:21.507Z,4.80
2018-08-10T02:42:21.527Z,5.30
2018-08-10T02:43:21.571Z,4.90
2018-08-10T02:44:21.589Z,5.00
2018-08-10T02:45:21.597Z,6.10
2018-08-10T02:46:21.595Z,4.70
2018-08-10T02:47:21.675Z,5.40
2018-08-10T02:48:21.613Z,6.00
2018-08-10T02:49:21.638Z,5.00
2018-08-10T02:50:21.676Z,4.70
2018-08-10T02:51:21.649Z,4.50
2018-08-10T02:52:21.700Z,4.60
2018-08-10T02:53:21.727Z,4.60
2018-08-10T02:54:21.740Z,4.70
2018-08-10T02:55:21.716Z,4.50
2018-08-10T02:56:21.735Z,4.30
2018-08-10T02:57:21.801Z,5.00
2018-08-10T02:58:21.785Z,4.30
2018-08-10T02:59:21.814Z,4.60
2018-08-10T03:00:21.826Z,4.70
2018-08-10T03:01:21.778Z,4.50
2018-08-10T03:02:21.831Z,4.10
2018-08-10T03:03:21.829Z,4.60
2018-08-10T03:04:21.864Z,3.90
2018-08-10T03:05:21.883Z,4.40
2018-08-10T03:06:21.862Z,4.10
2018-08-10T03:07:21.910Z,3.90
2018-08-10T03:08:21.898Z,4.90
2018-08-10T03:09:21.968Z,4.10
2018-08-10T03:10:21.936Z,4.10
2018-08-10T03:11:21.926Z,3.90
2018-08-10T03:12:22.008Z,4.70
2018-08-10T03:13:22.001Z,5.10
2018-08-10T03:14:21.991Z,4.50
2018-08-10T03:15:22.030Z,3.90
2018-08-10T03:16:22.034Z,3.70
2018-08-10T03:17:22.032Z,3.70
2018-08-10T03:18:22.099Z,3.60
2018-08-10T03:19:22.052Z,3.60
2018-08-10T03:20:22.077Z,3.60
2018-08-10T03:21:22.104Z,3.30
2018-08-10T03:22:22.119Z,3.30
2018-08-10T03:23:22.137Z,3.30
2018-08-10T03:24:22.143Z,3.00
2018-08-10T03:25:22.155Z,3.40
2018-08-10T03:26:22.179Z,3.50
2018-08-10T03:27:22.161Z,3.20
2018-08-10T03:28:22.173Z,3.50
2018-08-10T03:29:22.239Z,3.00
2018-08-10T03:30:22.225Z,3.40
2018-08-10T03:31:22.247Z,3.20
2018-08-10T03:32:22.224Z,3.50
2018-08-10T03:33:22.240Z,3.90
2018-08-10T03:34:22.301Z,3.50
2018-08-10T03:35:22.291Z,3.50
2018-08-10T03:36:22.292Z,3.30
2018-08-10T03:37:22.281Z,3.40
2018-08-10T03:38:22.326Z,3.30
2018-08-10T03:39:22.346Z,3.50
2018-08-10T03:40:22.393Z,3.30
2018-08-10T03:41:22.382Z,3.30
2018-08-10T03:42:22.417Z,3.00
2018-08-10T03:43:22.378Z,3.30
2018-08-10T03:44:22.404Z,3.20
2018-08-10T03:45:22.418Z,3.40
2018-08-10T03:46:22.466Z,3.60
2018-08-10T03:47:22.435Z,3.60
2018-08-10T03:48:22.450Z,3.60
2018-08-10T03:49:22.461Z,3.60
2018-08-10T03:50:22.510Z,2.80
2018-08-10T03:51:22.529Z,5.10
2018-08-10T03:52:22.538Z,4.00
2018-08-10T03:53:22.536Z,4.10
2018-08-10T03:54:22.531Z,3.20
2018-08-10T03:55:22.560Z,3.30
2018-08-10T03:56:22.577Z,3.60
2018-08-10T03:57:22.666Z,3.30
2018-08-10T03:58:22.633Z,3.30
2018-08-10T03:59:22.588Z,3.00
2018-08-10T04:00:22.622Z,3.60
2018-08-10T04:01:22.644Z,3.20
2018-08-10T04:02:22.637Z,4.70
2018-08-10T04:03:22.696Z,3.30
2018-08-10T04:04:22.700Z,3.20
2018-08-10T04:05:22.748Z,3.30
2018-08-10T04:06:22.740Z,3.40
2018-08-10T04:07:22.698Z,3.40
2018-08-10T04:08:22.714Z,3.40
2018-08-10T04:09:22.726Z,4.00
2018-08-10T04:10:22.747Z,3.10
2018-08-10T04:11:22.789Z,3.60
2018-08-10T04:12:22.796Z,3.40
2018-08-10T04:13:22.793Z,3.50
2018-08-10T04:14:22.807Z,3.70
2018-08-10T04:15:22.883Z,4.50
2018-08-10T04:16:22.827Z,3.50
2018-08-10T04:17:22.844Z,3.40
2018-08-10T04:18:22.873Z,3.80
2018-08-10T04:19:22.887Z,3.40
2018-08-10T04:20:22.951Z,3.70
2018-08-10T04:21:22.912Z,4.60
2018-08-10T04:22:22.939Z,3.80
2018-08-10T04:23:22.964Z,5.40
2018-08-10T04:24:22.958Z,5.00
2018-08-10T04:25:23.006Z,3.60
2018-08-10T04:26:24.514Z,4.80
2018-08-10T04:27:23.506Z,3.30
2018-08-10T04:28:23.053Z,3.70
2018-08-10T04:29:23.053Z,4.00
2018-08-10T04:30:23.028Z,4.50
2018-08-10T04:31:23.058Z,3.30
2018-08-10T04:32:23.081Z,3.40
2018-08-10T04:33:23.133Z,3.30
2018-08-10T04:34:23.094Z,3.50
2018-08-10T04:35:23.111Z,3.30
2018-08-10T04:36:23.122Z,3.20
2018-08-10T04:37:23.142Z,3.30
2018-08-10T04:38:23.206Z,2.90
2018-08-10T04:39:23.155Z,3.10
2018-08-10T04:40:23.254Z,3.50
2018-08-10T04:41:23.176Z,3.70
2018-08-10T04:42:23.203Z,3.80
2018-08-10T04:43:23.216Z,3.20
2018-08-10T04:44:23.241Z,3.10
2018-08-10T04:45:23.309Z,4.30
2018-08-10T04:46:23.271Z,3.30
2018-08-10T04:47:23.280Z,3.70
2018-08-10T04:48:23.298Z,3.30
2018-08-10T04:49:23.343Z,3.30
2018-08-10T04:50:23.352Z,4.00
2018-08-10T04:51:23.349Z,3.30
2018-08-10T04:52:23.353Z,3.50
2018-08-10T04:53:23.357Z,3.30
2018-08-10T04:54:23.398Z,2.90
2018-08-10T04:55:23.569Z,3.10
2018-08-10T04:56:23.432Z,4.50
2018-08-10T04:57:23.424Z,3.30
2018-08-10T04:58:23.440Z,3.10
2018-08-10T04:59:23.442Z,3.40
2018-08-10T05:00:23.544Z,3.10
2018-08-10T05:01:23.499Z,3.80
2018-08-10T05:02:23.525Z,5.20
2018-08-10T05:03:23.497Z,4.10
2018-08-10T05:04:23.558Z,2.80
2018-08-10T05:05:23.565Z,3.30
2018-08-10T05:06:23.550Z,3.50
2018-08-10T05:07:23.585Z,3.00
2018-08-10T05:08:23.597Z,2.70
2018-08-10T05:09:23.588Z,3.40
2018-08-10T05:10:23.598Z,2.90
2018-08-10T05:11:23.633Z,4.30
2018-08-10T05:12:23.695Z,4.60
2018-08-10T05:13:23.659Z,4.40
2018-08-10T05:14:23.650Z,3.80
2018-08-10T05:15:23.671Z,2.80
2018-08-10T05:16:23.688Z,2.70
2018-08-10T05:17:23.716Z,4.70
2018-08-10T05:18:23.737Z,7.90
2018-08-10T05:19:23.750Z,14.90
2018-08-10T05:20:23.746Z,6.90
2018-08-10T05:21:23.747Z,2.70
2018-08-10T05:22:23.756Z,3.20
2018-08-10T05:23:23.813Z,3.00
2018-08-10T05:24:23.793Z,2.60
2018-08-10T05:25:23.822Z,3.00
2018-08-10T05:26:23.858Z,2.90
2018-08-10T05:27:23.832Z,2.30
2018-08-10T05:28:23.892Z,2.30
2018-08-10T05:29:23.867Z,3.90
2018-08-10T05:30:23.909Z,2.70
2018-08-10T05:31:23.962Z,3.30
2018-08-10T05:32:23.916Z,3.00
2018-08-10T05:33:23.935Z,2.70
2018-08-10T05:34:23.948Z,4.80
2018-08-10T05:35:23.959Z,24.80
2018-08-10T05:36:23.994Z,8.60
2018-08-10T05:37:24.008Z,2.40
2018-08-10T05:38:23.984Z,3.20
2018-08-10T05:39:24.002Z,2.50
2018-08-10T05:40:24.039Z,2.70
2018-08-10T05:41:24.049Z,3.10
2018-08-10T05:42:24.106Z,1.90
2018-08-10T05:43:24.059Z,2.80
2018-08-10T05:44:24.066Z,1.90
2018-08-10T05:45:24.119Z,2.30
2018-08-10T05:46:24.189Z,2.70
2018-08-10T05:47:24.462Z,1.80
2018-08-10T05:48:24.146Z,1.90
2018-08-10T05:49:24.155Z,2.30
2018-08-10T05:50:24.416Z,3.80
2018-08-10T05:51:24.191Z,2.20
2018-08-10T05:52:24.208Z,2.40
2018-08-10T05:53:24.238Z,3.10
2018-08-10T05:54:24.195Z,1.90
2018-08-10T05:55:24.241Z,2.60
2018-08-10T05:56:24.235Z,3.90
2018-08-10T05:57:24.301Z,1.80
2018-08-10T05:58:24.323Z,1.90
2018-08-10T05:59:24.282Z,1.70
2018-08-10T06:00:24.360Z,2.20
2018-08-10T06:01:24.341Z,1.70
2018-08-10T06:02:24.322Z,2.20
2018-08-10T06:03:24.369Z,1.70
2018-08-10T06:04:24.405Z,2.20
2018-08-10T06:05:24.360Z,1.80
2018-08-10T06:06:24.362Z,2.30
2018-08-10T06:07:24.398Z,2.10
2018-08-10T06:08:24.390Z,3.00
2018-08-10T06:09:24.423Z,1.90
2018-08-10T06:10:24.442Z,1.90
2018-08-10T06:11:24.452Z,2.40
2018-08-10T06:12:24.506Z,1.50
2018-08-10T06:13:24.678Z,3.00
2018-08-10T06:14:24.485Z,1.80
2018-08-10T06:15:24.533Z,2.70
2018-08-10T06:16:24.539Z,1.30
2018-08-10T06:17:24.534Z,2.80
2018-08-10T06:18:24.600Z,1.70
2018-08-10T06:19:24.562Z,1.90
2018-08-10T06:20:24.607Z,0.80
2018-08-10T06:21:24.589Z,1.70
2018-08-10T06:22:24.622Z,2.90
2018-08-10T06:23:24.641Z,3.80
2018-08-10T06:24:24.692Z,3.00
2018-08-10T06:25:24.694Z,2.50
2018-08-10T06:26:24.646Z,2.80
2018-08-10T06:27:24.687Z,2.10
2018-08-10T06:28:24.744Z,2.80
2018-08-10T06:29:24.763Z,1.50
2018-08-10T06:30:24.724Z,1.10
2018-08-10T06:31:24.721Z,1.50
2018-08-10T06:32:24.760Z,1.60
2018-08-10T06:33:24.878Z,1.90
2018-08-10T06:34:24.816Z,3.30
2018-08-10T06:35:24.770Z,1.40
2018-08-10T06:36:25.347Z,1.50
2018-08-10T06:37:24.832Z,2.30
2018-08-10T06:38:24.895Z,1.50
2018-08-10T06:39:24.839Z,1.80
2018-08-10T06:40:24.890Z,2.30
2018-08-10T06:41:25.028Z,2.00
2018-08-10T06:42:24.862Z,1.80
2018-08-10T06:43:24.936Z,1.10
2018-08-10T06:44:24.931Z,2.20
2018-08-10T06:45:24.951Z,1.20
2018-08-10T06:46:24.983Z,3.30
2018-08-10T06:47:24.971Z,1.70
2018-08-10T06:48:25.001Z,2.10
2018-08-10T06:49:25.026Z,2.30
2018-08-10T06:50:24.974Z,1.80
2018-08-10T06:51:25.004Z,3.00
2018-08-10T06:52:25.010Z,2.20
2018-08-10T06:53:25.089Z,2.50
2018-08-10T06:54:25.083Z,1.30
2018-08-10T06:55:25.045Z,2.00
2018-08-10T06:56:25.089Z,1.30
2018-08-10T06:57:25.156Z,1.70
2018-08-10T06:58:25.115Z,2.50
2018-08-10T06:59:25.181Z,3.00
2018-08-10T07:00:25.190Z,1.70
2018-08-10T07:01:25.213Z,2.70
2018-08-10T07:02:25.151Z,2.40
2018-08-10T07:03:25.268Z,2.40
2018-08-10T07:04:25.192Z,0.90
2018-08-10T07:05:25.182Z,2.40
2018-08-10T07:06:25.237Z,1.70
2018-08-10T07:07:25.270Z,1.10
2018-08-10T07:08:26.481Z,0.80
2018-08-10T07:09:25.263Z,1.70
2018-08-10T07:10:25.263Z,2.00
2018-08-10T07:11:25.278Z,2.00
2018-08-10T07:12:25.304Z,1.40
2018-08-10T07:13:25.453Z,2.20
2018-08-10T07:14:25.339Z,1.50
2018-08-10T07:15:25.323Z,1.20
2018-08-10T07:16:25.349Z,1.10
2018-08-10T07:17:25.381Z,1.60
2018-08-10T07:18:25.390Z,2.50
2018-08-10T07:19:25.455Z,2.40
2018-08-10T07:20:25.376Z,0.80
2018-08-10T07:21:25.427Z,1.10
2018-08-10T07:22:25.426Z,2.40
2018-08-10T07:23:25.451Z,2.20
2018-08-10T07:24:25.491Z,2.20
2018-08-10T07:25:25.506Z,4.20
2018-08-10T07:26:25.480Z,1.90
2018-08-10T07:27:25.473Z,1.30
2018-08-10T07:28:25.526Z,1.60
2018-08-10T07:29:25.559Z,2.60
2018-08-10T07:30:25.559Z,7.80
2018-08-10T07:31:25.544Z,3.50
2018-08-10T07:32:25.545Z,5.90
2018-08-10T07:33:25.574Z,2.00
2018-08-10T07:34:25.575Z,2.50
2018-08-10T07:35:25.619Z,3.20
2018-08-10T07:36:25.714Z,2.70
2018-08-10T07:37:25.618Z,1.70
2018-08-10T07:38:25.657Z,1.40
2018-08-10T07:39:25.635Z,2.00
2018-08-10T07:40:25.661Z,3.00
2018-08-10T07:41:25.730Z,0.90
2018-08-10T07:42:25.712Z,1.20
2018-08-10T07:43:25.738Z,1.80
2018-08-10T07:44:25.694Z,1.20
2018-08-10T07:45:25.719Z,4.00
2018-08-10T07:46:25.852Z,1.40
2018-08-10T07:47:25.770Z,2.40
2018-08-10T07:48:25.781Z,2.00
2018-08-10T07:49:25.785Z,3.10
2018-08-10T07:50:25.814Z,3.10
2018-08-10T07:51:27.031Z,2.70
2018-08-10T07:52:25.843Z,1.30
2018-08-10T07:53:25.858Z,1.30
2018-08-10T07:54:25.924Z,1.40
2018-08-10T07:55:25.855Z,1.30
2018-08-10T07:56:25.872Z,2.60
2018-08-10T07:57:25.895Z,1.60
2018-08-10T07:58:25.955Z,1.70
2018-08-10T07:59:26.009Z,2.50
2018-08-10T08:00:25.974Z,2.40
2018-08-10T08:01:25.944Z,1.80
2018-08-10T08:02:26.003Z,1.60
2018-08-10T08:03:25.998Z,1.60
2018-08-10T08:04:26.044Z,2.90
2018-08-10T08:05:26.005Z,2.50
2018-08-10T08:06:26.031Z,2.30
2018-08-10T08:07:26.172Z,1.50
2018-08-10T08:08:26.056Z,2.20
2018-08-10T08:09:26.083Z,3.40
2018-08-10T08:10:26.139Z,7.10
2018-08-10T08:11:26.101Z,2.10
2018-08-10T08:12:26.082Z,1.70
2018-08-10T08:13:26.146Z,2.30
2018-08-10T08:14:26.128Z,2.40
2018-08-10T08:15:26.143Z,2.20
2018-08-10T08:16:26.158Z,3.10
2018-08-10T08:17:26.178Z,1.40
2018-08-10T08:18:26.223Z,1.20
2018-08-10T08:19:26.248Z,1.50
2018-08-10T08:20:26.203Z,1.10
2018-08-10T08:21:26.233Z,1.80
2018-08-10T08:22:26.262Z,2.10
2018-08-10T08:23:26.275Z,2.10
2018-08-10T08:24:26.442Z,1.70
2018-08-10T08:25:26.334Z,1.70
2018-08-10T08:26:26.329Z,1.20
2018-08-10T08:27:26.317Z,1.70
2018-08-10T08:28:26.356Z,1.90
2018-08-10T08:29:26.357Z,1.20
2018-08-10T08:30:26.403Z,1.60
2018-08-10T08:31:26.374Z,1.80
2018-08-10T08:32:26.382Z,2.60
2018-08-10T08:33:26.381Z,1.60
2018-08-10T08:34:26.406Z,1.50
2018-08-10T08:35:26.536Z,1.30
2018-08-10T08:36:26.662Z,2.00
2018-08-10T08:37:26.949Z,3.30
2018-08-10T08:38:26.693Z,1.50
2018-08-10T08:39:26.546Z,2.00
2018-08-10T08:40:26.788Z,1.30
2018-08-10T08:41:26.865Z,1.50
2018-08-10T08:42:26.736Z,2.70
2018-08-10T08:43:27.006Z,1.30
2018-08-10T08:44:26.776Z,1.60
2018-08-10T08:45:27.011Z,2.40
2018-08-10T08:46:27.032Z,1.30
2018-08-10T08:47:26.885Z,1.40
2018-08-10T08:48:26.623Z,1.80
2018-08-10T08:49:26.659Z,2.50
2018-08-10T08:50:26.903Z,1.50
2018-08-10T08:51:26.655Z,1.30
2018-08-10T08:52:26.790Z,1.30
2018-08-10T08:53:26.703Z,2.60
2018-08-10T08:54:26.785Z,1.70
2018-08-10T08:55:27.097Z,2.70
2018-08-10T08:56:26.753Z,3.40
2018-08-10T08:57:28.262Z,3.00
2018-08-10T08:58:26.915Z,1.90
2018-08-10T08:59:27.021Z,1.80
2018-08-10T09:00:28.658Z,1.90
2018-08-10T09:01:26.865Z,1.80
2018-08-10T09:02:26.829Z,1.60
2018-08-10T09:03:26.874Z,1.20
2018-08-10T09:04:26.889Z,1.70
2018-08-10T09:05:26.939Z,1.40
2018-08-10T09:06:26.909Z,1.10
2018-08-10T09:07:26.965Z,2.20
2018-08-10T09:08:26.960Z,2.00
2018-08-10T09:09:27.018Z,1.50
2018-08-10T09:10:26.944Z,1.70
2018-08-10T09:11:26.958Z,1.30
2018-08-10T09:12:27.644Z,2.60
2018-08-10T09:13:27.590Z,1.90
2018-08-10T09:14:27.101Z,1.50
2018-08-10T09:15:27.046Z,2.40
2018-08-10T09:16:27.125Z,1.30
2018-08-10T09:17:27.147Z,1.90
2018-08-10T09:18:27.042Z,2.60
2018-08-10T09:19:27.093Z,1.40
2018-08-10T09:20:27.088Z,1.90
2018-08-10T09:21:27.129Z,1.40
2018-08-10T09:22:27.418Z,2.10
2018-08-10T09:23:27.183Z,3.50
2018-08-10T09:24:27.187Z,1.60
2018-08-10T09:25:27.188Z,2.60
2018-08-10T09:26:27.277Z,2.00
2018-08-10T09:27:27.175Z,1.50
2018-08-10T09:28:27.241Z,2.60
2018-08-10T09:29:27.188Z,1.80
2018-08-10T09:30:27.213Z,1.40
2018-08-10T09:31:27.305Z,1.30
2018-08-10T09:32:27.316Z,1.60
2018-08-10T09:33:27.266Z,2.80
2018-08-10T09:34:27.473Z,3.80
2018-08-10T09:35:27.332Z,3.50
2018-08-10T09:36:27.364Z,1.70
2018-08-10T09:37:27.319Z,2.40
2018-08-10T09:38:27.407Z,2.40
2018-08-10T09:39:27.414Z,2.10
2018-08-10T09:40:27.458Z,2.50
2018-08-10T09:41:27.378Z,2.10
2018-08-10T09:42:27.440Z,1.80
2018-08-10T09:43:27.471Z,1.90
2018-08-10T09:44:27.417Z,1.90
2018-08-10T09:45:27.558Z,3.10
2018-08-10T09:46:27.459Z,4.10
2018-08-10T09:47:27.515Z,6.00
2018-08-10T09:48:27.504Z,5.10
2018-08-10T09:49:27.520Z,1.70
2018-08-10T11:42:19.698Z,2.60
2018-08-10T11:43:19.659Z,3.40
2018-08-10T11:44:19.678Z,3.10
2018-08-10T11:45:19.748Z,2.40
2018-08-10T11:46:19.692Z,1.80
2018-08-10T11:47:19.760Z,1.80
2018-08-10T11:48:20.093Z,3.30
2018-08-10T11:49:19.725Z,3.50
2018-08-10T11:50:19.797Z,2.50
2018-08-10T11:51:19.756Z,2.20
2018-08-10T11:52:19.820Z,3.40
2018-08-10T11:53:19.868Z,2.20
2018-08-10T11:54:19.826Z,2.40
2018-08-10T11:55:19.837Z,3.20
2018-08-10T11:56:19.854Z,4.00
2018-08-10T11:57:19.882Z,4.50
2018-08-10T11:58:19.932Z,4.90
2018-08-10T11:59:19.904Z,4.20
2018-08-10T12:00:19.915Z,2.20
2018-08-10T12:01:19.931Z,4.60
2018-08-10T12:02:20.543Z,4.00
2018-08-10T12:03:24.939Z,5.90
2018-08-10T12:04:26.938Z,3.90
2018-08-10T12:05:20.524Z,3.70
2018-08-10T12:06:20.665Z,3.40
2018-08-10T12:07:20.006Z,2.80
2018-08-10T12:08:20.013Z,4.40
2018-08-10T12:09:20.068Z,3.70
2018-08-10T12:10:20.073Z,3.80
2018-08-10T12:11:20.058Z,2.20
2018-08-10T12:12:20.127Z,2.50
2018-08-10T12:13:20.414Z,3.80
2018-08-10T12:14:20.952Z,4.90
2018-08-10T12:15:21.146Z,3.70
2018-08-10T12:16:20.947Z,2.30
2018-08-10T12:17:21.057Z,2.60
2018-08-10T12:18:20.970Z,3.70
2018-08-10T12:19:20.259Z,3.20
2018-08-10T12:20:20.200Z,3.70
2018-08-10T12:21:20.248Z,2.80
2018-08-10T12:22:20.230Z,4.40
2018-08-10T12:23:20.217Z,8.00
2018-08-10T12:24:20.259Z,4.00
2018-08-10T12:25:20.282Z,2.90
2018-08-10T12:26:20.334Z,3.00
2018-08-10T12:27:20.295Z,3.40
2018-08-10T12:28:20.354Z,3.10
2018-08-10T12:29:20.313Z,4.40
2018-08-10T12:30:20.409Z,3.00
2018-08-10T12:31:20.373Z,3.30
2018-08-10T12:32:20.394Z,4.30
2018-08-10T12:33:20.451Z,6.50
2018-08-10T12:34:20.437Z,3.40
2018-08-10T12:35:20.456Z,4.30
2018-08-10T12:36:20.426Z,4.30
2018-08-10T12:37:20.451Z,2.50
2018-08-10T12:38:20.466Z,2.10
2018-08-10T12:39:20.514Z,2.10
2018-08-10T12:40:20.535Z,4.60
2018-08-10T12:41:20.505Z,3.30
2018-08-10T12:42:20.554Z,2.60
2018-08-10T12:43:20.598Z,3.20
2018-08-10T12:44:20.551Z,3.00
2018-08-10T12:45:20.664Z,3.30
2018-08-10T12:46:20.592Z,3.30
2018-08-10T12:47:20.589Z,2.70
2018-08-10T12:48:20.628Z,3.20
2018-08-10T12:49:20.652Z,3.90
2018-08-10T12:50:20.787Z,2.70
2018-08-10T12:51:20.671Z,2.40
2018-08-10T12:52:20.681Z,2.00
2018-08-10T12:53:20.729Z,4.50
2018-08-10T12:54:20.720Z,2.30
2018-08-10T12:55:20.756Z,2.30
2018-08-10T12:56:20.740Z,1.90
2018-08-10T12:57:21.569Z,3.20
2018-08-10T12:58:20.757Z,1.80
2018-08-10T12:59:20.761Z,1.80
2018-08-10T13:00:20.783Z,2.60
2018-08-10T13:01:20.885Z,1.50
2018-08-10T13:02:20.838Z,1.50
2018-08-10T13:03:21.358Z,2.00
2018-08-10T13:04:20.838Z,2.40
2018-08-10T13:05:20.865Z,1.80
2018-08-10T13:06:20.864Z,1.60
2018-08-10T13:07:20.940Z,3.40
2018-08-10T13:08:20.954Z,1.60
2018-08-10T13:09:20.953Z,1.90
2018-08-10T13:10:20.993Z,2.20
2018-08-10T13:11:20.953Z,1.30
2018-08-10T13:12:20.964Z,2.00
2018-08-10T13:13:21.046Z,1.60
2018-08-10T13:14:21.013Z,1.20
2018-08-10T13:15:20.988Z,1.30
2018-08-10T13:16:21.038Z,1.40
2018-08-10T13:17:21.029Z,1.30
2018-08-10T13:18:21.126Z,1.60
2018-08-10T13:19:21.057Z,2.80
2018-08-10T13:20:21.082Z,1.90
2018-08-10T13:21:21.144Z,2.50
2018-08-10T13:22:21.113Z,1.90
2018-08-10T13:23:21.123Z,2.10
2018-08-10T13:24:21.139Z,1.80
2018-08-10T13:25:21.160Z,1.60
2018-08-10T13:26:21.210Z,2.10
2018-08-10T13:27:21.181Z,1.30
2018-08-10T13:28:21.215Z,1.20
2018-08-10T13:29:21.208Z,1.50
2018-08-10T13:30:21.234Z,3.40
2018-08-10T13:31:21.280Z,2.30
2018-08-10T13:32:21.303Z,2.60
2018-08-10T13:33:21.253Z,1.20
2018-08-10T13:34:21.305Z,2.10
2018-08-10T13:35:21.322Z,1.70
2018-08-10T13:36:21.319Z,1.90
2018-08-10T13:37:21.384Z,2.10
2018-08-10T13:38:21.326Z,2.00
2018-08-10T13:39:21.340Z,2.90
2018-08-10T13:40:21.383Z,2.20
2018-08-10T13:41:21.392Z,1.40
2018-08-10T13:42:21.718Z,3.80
2018-08-10T13:43:21.418Z,1.30
2018-08-10T13:44:21.436Z,1.50
2018-08-10T13:45:21.430Z,1.90
2018-08-10T13:46:21.494Z,2.00
2018-08-10T13:47:21.446Z,3.00
2018-08-10T13:48:21.492Z,1.60
2018-08-10T13:49:21.494Z,1.80
2018-08-10T13:50:21.557Z,2.50
2018-08-10T13:51:21.517Z,2.40
2018-08-10T13:52:21.524Z,2.50
2018-08-10T13:53:21.671Z,1.80
2018-08-10T13:54:21.576Z,2.90
2018-08-10T13:55:21.612Z,1.70
2018-08-10T13:56:21.656Z,1.80
2018-08-10T13:57:21.619Z,2.60
2018-08-10T13:58:21.617Z,1.70
2018-08-10T13:59:21.634Z,1.40
2018-08-10T14:00:21.667Z,1.60
2018-08-10T14:01:21.704Z,1.90
2018-08-10T14:02:21.720Z,2.10
2018-08-10T14:03:21.700Z,4.00
2018-08-10T14:04:21.715Z,2.00
2018-08-10T14:05:21.712Z,3.10
2018-08-10T14:06:21.750Z,1.90
2018-08-10T14:07:21.816Z,1.90
2018-08-10T14:08:21.784Z,2.90
2018-08-10T14:09:21.790Z,1.60
2018-08-10T14:10:21.835Z,4.80
2018-08-10T14:11:21.811Z,2.90
2018-08-10T14:12:21.896Z,2.00
2018-08-10T14:13:21.881Z,2.30
2018-08-10T14:14:21.842Z,1.90
2018-08-10T14:15:21.882Z,3.00
2018-08-10T14:16:21.877Z,3.40
2018-08-10T14:17:21.885Z,2.10
2018-08-10T14:18:21.948Z,2.70
2018-08-10T14:19:21.931Z,2.50
2018-08-10T14:20:21.974Z,1.60
2018-08-10T14:21:21.993Z,2.70
2018-08-10T14:22:21.984Z,1.70
2018-08-10T14:23:21.986Z,1.50
2018-08-10T14:24:21.990Z,2.30
2018-08-10T14:25:22.060Z,3.80
2018-08-10T14:26:22.044Z,4.90
2018-08-10T14:27:22.049Z,2.10
2018-08-10T14:28:22.058Z,1.40
2018-08-10T14:29:22.080Z,2.10
2018-08-10T14:30:22.124Z,1.30
2018-08-10T14:31:22.141Z,1.60
2018-08-10T14:32:22.120Z,1.20
2018-08-10T14:33:22.211Z,1.10
2018-08-10T14:34:22.171Z,2.80
2018-08-10T14:35:22.170Z,2.30
2018-08-10T14:36:22.241Z,1.40
2018-08-10T14:37:22.236Z,2.20
2018-08-10T14:38:22.250Z,11.70
2018-08-10T14:39:22.239Z,2.80
2018-08-10T14:40:22.239Z,1.60
2018-08-10T14:41:22.358Z,2.40
2018-08-10T14:42:22.335Z,1.70
2018-08-10T14:43:22.287Z,2.00
2018-08-10T14:44:22.308Z,3.50
2018-08-10T14:45:22.300Z,2.10
2018-08-10T14:46:22.323Z,1.70
2018-08-10T14:47:22.399Z,1.70
2018-08-10T14:48:22.397Z,1.10
2018-08-10T14:49:22.383Z,3.40
2018-08-10T14:50:22.380Z,2.80
2018-08-10T14:51:22.415Z,2.70
2018-08-10T14:52:22.426Z,3.60
2018-08-10T14:53:22.496Z,4.60
2018-08-10T14:54:22.446Z,3.80
2018-08-10T14:55:22.470Z,3.10
2018-08-10T14:56:22.467Z,2.30
2018-08-10T14:57:22.507Z,4.20
2018-08-10T14:58:22.529Z,3.80
2018-08-10T14:59:22.554Z,3.40
2018-08-10T15:00:22.542Z,1.90
2018-08-10T15:01:22.557Z,2.10
2018-08-10T15:02:22.574Z,2.10
2018-08-10T15:03:22.600Z,2.20
2018-08-10T15:04:22.645Z,3.30
2018-08-10T15:05:22.611Z,2.20
2018-08-10T15:06:22.631Z,3.10
2018-08-10T15:07:22.645Z,2.70
2018-08-10T15:08:22.670Z,1.50
2018-08-10T15:09:22.702Z,3.10
2018-08-10T15:10:22.686Z,1.60